Time;durP1;ratioP1;P1;durP2;ratioP2;P2;SDS_P1;SDS_P2;PMS_P1;PMS_P2;Temp;Humidity;BMP_temperature;BMP_pressure;BME280_temperature;BME280_humidity;BME280_pressure;Samples;Min_cycle;Max_cycle;Signal;HPM_P1;HPM_P2
2023/09/16 00:00:09;;;;;;;;;;;;;;;22.66;64.74;97326.02;594138;239;65001;-65
2023/09/16 00:02:37;;;;;;;;;;;;;;;22.66;64.70;97328.70;594125;239;64675;-65
2023/09/16 00:05:05;;;;;;;;;;;;;;;22.66;64.71;97323.34;594146;239;66867;-65
2023/09/16 00:07:33;;;;;;;;;;;;;;;22.66;64.71;97327.91;594165;239;65209;-65
2023/09/16 00:10:00;;;;;;;;;;;;;;;22.66;64.74;97319.87;594134;239;67087;-65
2023/09/16 00:12:28;;;;;;;;;;;;;;;22.65;64.69;97329.78;594156;239;66906;-65
2023/09/16 00:14:55;;;;;;;;;;;;;;;22.66;64.69;97333.27;594115;239;66066;-65
2023/09/16 00:17:23;;;;;;;;;;;;;;;22.66;64.66;97333.27;594133;239;67324;-65
2023/09/16 00:19:52;;;;;;;;;;;;;;;22.64;64.67;97325.48;594147;239;66839;-65
2023/09/16 00:22:21;;;;;;;;;;;;;;;22.66;64.63;97333.27;594192;239;64991;-65
2023/09/16 00:24:49;;;;;;;;;;;;;;;22.65;64.65;97335.14;594079;239;64854;-65
2023/09/16 00:27:17;;;;;;;;;;;;;;;22.65;64.61;97340.50;594143;239;64805;-65
2023/09/16 00:29:45;;;;;;;;;;;;;;;22.65;64.60;97332.47;594116;239;66155;-65
2023/09/16 00:32:12;;;;;;;;;;;;;;;22.65;64.61;97337.03;594088;239;68086;-65
2023/09/16 00:34:40;;;;;;;;;;;;;;;22.65;64.61;97326.31;594197;239;64637;-65
2023/09/16 00:37:07;;;;;;;;;;;;;;;22.65;64.52;97332.47;594177;239;65183;-65
2023/09/16 00:39:36;;;;;;;;;;;;;;;22.65;64.56;97331.67;594094;239;67175;-65
2023/09/16 00:42:03;;;;;;;;;;;;;;;22.64;64.54;97332.72;594138;239;67261;-65
2023/09/16 00:44:31;;;;;;;;;;;;;;;22.64;64.56;97336.20;594109;239;65033;-65
2023/09/16 00:46:59;;;;;;;;;;;;;;;22.63;64.53;97334.61;594153;239;64590;-65
2023/09/16 00:49:30;;;;;;;;;;;;;;;22.64;64.54;97336.20;594161;239;67231;-65
2023/09/16 00:51:56;;;;;;;;;;;;;;;22.64;64.53;97340.77;594059;239;64882;-65
2023/09/16 00:54:24;;;;;;;;;;;;;;;22.64;64.53;97330.05;594144;239;67437;-65
2023/09/16 00:56:52;;;;;;;;;;;;;;;22.63;64.48;97345.33;594173;239;66675;-65
2023/09/16 00:59:22;;;;;;;;;;;;;;;22.64;64.45;97335.41;594155;239;62685;-65
2023/09/16 01:01:50;;;;;;;;;;;;;;;22.63;64.47;97334.61;594205;239;64854;-65
2023/09/16 01:04:17;;;;;;;;;;;;;;;22.63;64.45;97329.25;594104;239;67994;-65
2023/09/16 01:06:47;;;;;;;;;;;;;;;22.64;64.44;97330.05;594148;239;65109;-65
2023/09/16 01:09:17;;;;;;;;;;;;;;;22.63;64.41;97333.81;594130;239;64534;-65
2023/09/16 01:11:44;;;;;;;;;;;;;;;22.63;64.40;97329.25;594159;239;66670;-68
2023/09/16 01:14:12;;;;;;;;;;;;;;;22.63;64.41;97334.61;594181;239;65804;-69
2023/09/16 01:16:41;;;;;;;;;;;;;;;22.63;64.44;97331.93;594166;239;67022;-69
2023/09/16 01:19:22;;;;;;;;;;;;;;;22.63;64.42;97345.33;594140;239;67558;-69
2023/09/16 01:21:50;;;;;;;;;;;;;;;22.62;64.39;97338.38;594145;239;63795;-69
2023/09/16 01:24:19;;;;;;;;;;;;;;;22.62;64.41;97338.38;594143;239;67012;-68
2023/09/16 01:26:47;;;;;;;;;;;;;;;22.61;64.45;97342.91;594137;239;67057;-68
2023/09/16 01:29:16;;;;;;;;;;;;;;;22.60;64.46;97341.31;594129;239;64915;-69
2023/09/16 01:31:45;;;;;;;;;;;;;;;22.61;64.43;97342.11;594080;239;67459;-64
2023/09/16 01:34:17;;;;;;;;;;;;;;;22.62;64.48;97338.38;594144;239;65485;-64
2023/09/16 01:36:47;;;;;;;;;;;;;;;22.61;64.43;97345.58;593165;239;65234;-64
2023/09/16 01:39:15;;;;;;;;;;;;;;;22.60;64.53;97343.20;594151;239;64596;-65
2023/09/16 01:41:44;;;;;;;;;;;;;;;22.60;64.42;97352.03;594144;239;65916;-64
2023/09/16 01:44:12;;;;;;;;;;;;;;;22.61;64.39;97352.82;594167;239;65397;-64
2023/09/16 01:46:39;;;;;;;;;;;;;;;22.60;64.41;97346.67;594150;239;67297;-64
2023/09/16 01:49:07;;;;;;;;;;;;;;;22.60;64.40;97351.23;594144;239;66921;-64
2023/09/16 01:51:36;;;;;;;;;;;;;;;22.60;64.40;97351.23;594105;239;65746;-64
2023/09/16 01:54:04;;;;;;;;;;;;;;;22.61;64.41;97358.18;594102;239;64804;-64
2023/09/16 01:56:31;;;;;;;;;;;;;;;22.60;64.46;97357.39;594162;239;66980;-64
2023/09/16 01:58:59;;;;;;;;;;;;;;;22.60;64.52;97356.59;594121;239;64871;-64
2023/09/16 02:01:27;;;;;;;;;;;;;;;22.60;64.55;97361.95;594142;239;65858;-64
2023/09/16 02:04:00;;;;;;;;;;;;;;;22.60;64.52;97356.59;594108;239;65651;-64
2023/09/16 02:06:25;;;;;;;;;;;;;;;22.60;64.51;97361.95;593932;239;64032;-65
2023/09/16 02:08:53;;;;;;;;;;;;;;;22.60;64.46;97356.59;594135;239;67959;-64
2023/09/16 02:11:20;;;;;;;;;;;;;;;22.60;64.51;97351.23;594129;239;66856;-65
2023/09/16 02:13:48;;;;;;;;;;;;;;;22.59;64.44;97355.00;594147;239;63000;-65
2023/09/16 02:16:15;;;;;;;;;;;;;;;22.59;64.34;97355.00;594112;239;65029;-64
2023/09/16 02:18:43;;;;;;;;;;;;;;;22.59;64.40;97358.47;594094;239;67743;-64
2023/09/16 02:21:11;;;;;;;;;;;;;;;22.59;64.44;97358.47;594161;239;65763;-64
2023/09/16 02:23:39;;;;;;;;;;;;;;;22.59;64.35;97360.35;594126;239;64742;-64
2023/09/16 02:26:06;;;;;;;;;;;;;;;22.59;64.35;97355.00;594120;239;65797;-65
2023/09/16 02:28:34;;;;;;;;;;;;;;;22.59;64.38;97358.47;594131;239;65050;-64
2023/09/16 02:31:01;;;;;;;;;;;;;;;22.59;64.34;97352.31;593550;239;67949;-64
2023/09/16 02:33:29;;;;;;;;;;;;;;;22.59;64.35;97349.64;591427;240;67005;-64
2023/09/16 02:35:58;;;;;;;;;;;;;;;22.59;64.30;97353.11;591360;240;63561;-65
2023/09/16 02:38:25;;;;;;;;;;;;;;;22.58;64.38;97356.05;591400;240;64412;-64
2023/09/16 02:40:53;;;;;;;;;;;;;;;22.59;64.59;97353.11;591395;240;66966;-64
2023/09/16 02:43:20;;;;;;;;;;;;;;;22.59;64.51;97344.28;591385;240;65107;-64
2023/09/16 02:45:48;;;;;;;;;;;;;;;22.59;64.46;97355.00;591392;240;65385;-69
2023/09/16 02:48:18;;;;;;;;;;;;;;;22.58;64.56;97348.02;591460;240;64761;-68
2023/09/16 02:50:46;;;;;;;;;;;;;;;22.57;64.30;97344.54;591384;240;63100;-68
2023/09/16 02:53:14;;;;;;;;;;;;;;;22.58;64.55;97343.45;591381;240;65001;-69
2023/09/16 02:55:42;;;;;;;;;;;;;;;22.57;64.46;97344.54;591377;240;64858;-69
2023/09/16 02:58:09;;;;;;;;;;;;;;;22.58;64.41;97342.66;591399;240;62986;-69
2023/09/16 03:00:37;;;;;;;;;;;;;;;22.57;64.39;97344.54;591476;240;67814;-69
2023/09/16 03:03:05;;;;;;;;;;;;;;;22.59;64.53;97355.00;591354;240;67859;-69
2023/09/16 03:05:33;;;;;;;;;;;;;;;22.57;64.44;97355.25;591332;240;65072;-68
2023/09/16 03:08:00;;;;;;;;;;;;;;;22.57;64.37;97349.90;591364;240;64905;-68
2023/09/16 03:10:28;;;;;;;;;;;;;;;22.56;64.34;97359.02;591405;240;64891;-68
2023/09/16 03:12:56;;;;;;;;;;;;;;;22.57;64.46;97367.85;591442;240;65661;-69
2023/09/16 03:15:23;;;;;;;;;;;;;;;22.56;64.82;97369.73;591395;240;67248;-69
2023/09/16 03:17:51;;;;;;;;;;;;;;;22.56;64.77;97367.05;591367;240;64796;-64
2023/09/16 03:20:18;;;;;;;;;;;;;;;22.56;64.80;97371.59;591411;240;63055;-64
2023/09/16 03:22:47;;;;;;;;;;;;;;;22.56;64.73;97366.23;591404;240;68328;-64
2023/09/16 03:25:14;;;;;;;;;;;;;;;22.56;65.19;97372.41;591448;240;66763;-65
2023/09/16 03:27:42;;;;;;;;;;;;;;;22.56;64.95;97369.73;591403;240;63764;-65
2023/09/16 03:30:10;;;;;;;;;;;;;;;22.56;65.04;97374.27;591352;240;68042;-64
2023/09/16 03:32:39;;;;;;;;;;;;;;;22.55;64.97;97375.35;593723;239;67397;-64
2023/09/16 03:35:07;;;;;;;;;;;;;;;22.56;64.80;97376.94;594135;239;62516;-64
2023/09/16 03:37:35;;;;;;;;;;;;;;;22.55;64.98;97370.79;594207;239;65118;-64
2023/09/16 03:40:04;;;;;;;;;;;;;;;22.55;64.72;97375.35;594129;239;67013;-64
2023/09/16 03:42:32;;;;;;;;;;;;;;;22.55;65.20;97381.50;594129;239;65058;-64
2023/09/16 03:44:59;;;;;;;;;;;;;;;22.55;65.15;97378.03;594140;239;64919;-64
2023/09/16 03:47:27;;;;;;;;;;;;;;;22.54;64.99;97374.55;594120;239;67463;-64
2023/09/16 03:49:55;;;;;;;;;;;;;;;22.55;64.83;97380.70;594195;239;64536;-64
2023/09/16 03:52:23;;;;;;;;;;;;;;;22.55;64.97;97375.35;594151;239;64601;-64
2023/09/16 03:54:50;;;;;;;;;;;;;;;22.55;65.09;97369.99;594136;239;67261;-64
2023/09/16 03:57:18;;;;;;;;;;;;;;;22.54;64.76;97374.55;594085;239;63896;-64
2023/09/16 03:59:48;;;;;;;;;;;;;;;22.55;64.69;97380.70;594192;239;45809;-64
2023/09/16 04:02:16;;;;;;;;;;;;;;;22.54;65.17;97379.11;594130;239;67256;-64
2023/09/16 04:04:44;;;;;;;;;;;;;;;22.54;65.00;97382.59;594194;239;64634;-65
2023/09/16 04:07:12;;;;;;;;;;;;;;;22.54;64.90;97379.11;594156;239;67342;-64
2023/09/16 04:09:39;;;;;;;;;;;;;;;22.54;64.97;97381.80;594124;239;67754;-64
2023/09/16 04:12:08;;;;;;;;;;;;;;;22.53;65.04;97380.17;594143;239;65282;-64
2023/09/16 04:14:35;;;;;;;;;;;;;;;22.53;65.00;97380.97;594184;239;67364;-64
2023/09/16 04:17:04;;;;;;;;;;;;;;;22.53;65.49;97383.64;594176;239;67038;-64
2023/09/16 04:19:31;;;;;;;;;;;;;;;22.53;65.36;97393.56;594148;239;65235;-64
2023/09/16 04:21:59;;;;;;;;;;;;;;;22.54;65.34;97389.83;594122;239;67236;-64
2023/09/16 04:24:26;;;;;;;;;;;;;;;22.53;65.38;97388.20;594122;239;64766;-64
2023/09/16 04:26:54;;;;;;;;;;;;;;;22.53;65.49;97389.00;594144;239;65782;-64
2023/09/16 04:29:22;;;;;;;;;;;;;;;22.53;65.41;97398.91;594200;239;67292;-64
2023/09/16 04:31:51;;;;;;;;;;;;;;;22.53;65.51;97396.23;594093;239;67802;-64
2023/09/16 04:34:19;;;;;;;;;;;;;;;22.52;65.35;97394.64;594149;239;65146;-64
2023/09/16 04:36:48;;;;;;;;;;;;;;;22.52;65.51;97402.68;594125;239;67745;-64
2023/09/16 04:39:17;;;;;;;;;;;;;;;22.52;65.34;97406.16;594123;239;67765;-65
2023/09/16 04:41:44;;;;;;;;;;;;;;;22.53;65.21;97404.27;594117;239;65182;-64
2023/09/16 04:44:13;;;;;;;;;;;;;;;22.53;65.40;97398.91;594194;239;67239;-64
2023/09/16 04:46:41;;;;;;;;;;;;;;;22.52;65.12;97394.64;594100;239;67962;-64
2023/09/16 04:49:10;;;;;;;;;;;;;;;22.52;65.28;97394.64;594166;239;41586;-64
2023/09/16 04:51:38;;;;;;;;;;;;;;;22.52;65.32;97394.64;594120;239;64785;-64
2023/09/16 04:54:07;;;;;;;;;;;;;;;22.52;65.17;97398.12;594134;239;66983;-65
2023/09/16 04:56:35;;;;;;;;;;;;;;;22.52;65.15;97402.68;594178;239;65082;-64
2023/09/16 04:59:04;;;;;;;;;;;;;;;22.52;65.15;97405.36;592867;239;64605;-64
2023/09/16 05:01:32;;;;;;;;;;;;;;;22.51;65.27;97401.88;594134;239;64244;-64
2023/09/16 05:03:59;;;;;;;;;;;;;;;22.51;65.50;97407.24;594152;239;62719;-68
2023/09/16 05:06:28;;;;;;;;;;;;;;;22.52;66.38;97413.39;594139;239;44396;-68
2023/09/16 05:08:56;;;;;;;;;;;;;;;22.51;66.74;97417.16;594203;239;66823;-68
2023/09/16 05:11:24;;;;;;;;;;;;;;;22.50;66.76;97419.01;594124;239;63079;-69
2023/09/16 05:13:53;;;;;;;;;;;;;;;22.51;66.53;97419.84;594063;239;48449;-69
2023/09/16 05:16:22;;;;;;;;;;;;;;;22.50;66.36;97420.89;594105;239;64279;-68
2023/09/16 05:18:50;;;;;;;;;;;;;;;22.50;66.73;97423.57;594146;239;63102;-68
2023/09/16 05:21:19;;;;;;;;;;;;;;;22.50;67.75;97420.89;594190;239;66911;-68
2023/09/16 05:23:47;;;;;;;;;;;;;;;22.50;67.93;97426.25;587472;239;68502;-68
2023/09/16 05:26:15;;;;;;;;;;;;;;;22.49;64.96;97430.80;594127;239;62570;-68
2023/09/16 05:28:44;;;;;;;;;;;;;;;22.50;64.71;97434.28;587511;239;64992;-68
2023/09/16 05:31:12;;;;;;;;;;;;;;;22.50;64.93;97428.92;594069;239;65024;-68
2023/09/16 05:33:42;;;;;;;;;;;;;;;22.50;66.13;97434.28;594105;239;62544;-68
2023/09/16 05:36:10;;;;;;;;;;;;;;;22.50;65.45;97432.40;594157;239;67101;-69
2023/09/16 05:38:38;;;;;;;;;;;;;;;22.49;66.61;97441.52;594094;239;67260;-68
2023/09/16 05:41:06;;;;;;;;;;;;;;;22.50;67.95;97447.67;594114;239;65034;-69
2023/09/16 05:43:34;;;;;;;;;;;;;;;22.50;67.71;97442.31;594074;239;65099;-68
2023/09/16 05:46:06;;;;;;;;;;;;;;;22.49;66.86;97451.44;594078;239;66990;-68
2023/09/16 05:48:34;;;;;;;;;;;;;;;22.50;67.51;97456.50;594161;239;62994;-68
2023/09/16 05:51:02;;;;;;;;;;;;;;;22.49;67.12;97464.83;594102;239;67091;-68
2023/09/16 05:53:32;;;;;;;;;;;;;;;22.49;67.36;97462.15;594071;239;67251;-68
2023/09/16 05:56:04;;;;;;;;;;;;;;;22.48;67.33;97457.84;594088;239;44903;-68
2023/09/16 05:58:33;;;;;;;;;;;;;;;22.48;68.02;97456.00;594094;239;67212;-68
2023/09/16 06:01:02;;;;;;;;;;;;;;;22.47;66.93;97457.05;594101;239;67974;-68
2023/09/16 06:03:31;;;;;;;;;;;;;;;22.48;66.36;97457.84;592833;239;62995;-68
2023/09/16 06:06:01;;;;;;;;;;;;;;;22.48;66.21;97460.52;594125;239;67333;-68
2023/09/16 06:08:29;;;;;;;;;;;;;;;22.47;65.27;97466.96;594088;239;64476;-68
2023/09/16 06:10:57;;;;;;;;;;;;;;;22.47;65.63;97465.08;594077;239;65110;-68
2023/09/16 06:13:25;;;;;;;;;;;;;;;22.48;66.40;97465.88;594066;239;65940;-67
2023/09/16 06:15:53;;;;;;;;;;;;;;;22.48;66.25;97474.74;594221;239;66749;-67
2023/09/16 06:18:23;;;;;;;;;;;;;;;22.47;67.55;97475.80;594237;239;43916;-68
2023/09/16 06:20:50;;;;;;;;;;;;;;;22.44;64.52;97473.66;594137;239;66871;-68
2023/09/16 06:23:18;;;;;;;;;;;;;;;22.46;64.40;97473.41;593698;239;66833;-68
2023/09/16 06:25:47;;;;;;;;;;;;;;;22.48;65.46;97473.91;592755;239;65799;-68
2023/09/16 06:28:15;;;;;;;;;;;;;;;22.48;65.72;97476.59;594098;239;68048;-68
2023/09/16 06:30:43;;;;;;;;;;;;;;;22.49;66.78;97488.93;593355;239;64867;-68
2023/09/16 06:33:11;;;;;;;;;;;;;;;22.49;66.68;97483.57;591387;240;65857;-68
2023/09/16 06:35:38;;;;;;;;;;;;;;;22.48;66.54;97488.13;591396;240;66987;-68
2023/09/16 06:38:06;;;;;;;;;;;;;;;22.49;67.26;97491.61;591427;240;66910;-68
2023/09/16 06:40:33;;;;;;;;;;;;;;;22.49;66.96;97499.64;591418;240;62696;-68
2023/09/16 06:43:02;;;;;;;;;;;;;;;22.49;66.18;97502.33;591460;240;67395;-68
2023/09/16 06:45:29;;;;;;;;;;;;;;;22.49;65.65;97503.12;591422;240;66791;-68
2023/09/16 06:47:57;;;;;;;;;;;;;;;22.50;66.48;97502.03;591393;240;65044;-68
2023/09/16 06:50:25;;;;;;;;;;;;;;;22.50;66.89;97507.39;591354;240;64459;-68
2023/09/16 06:52:52;;;;;;;;;;;;;;;22.50;66.41;97506.59;591035;240;66660;-68
2023/09/16 06:55:20;;;;;;;;;;;;;;;22.50;66.68;97507.39;590963;240;65073;-68
2023/09/16 06:57:47;;;;;;;;;;;;;;;22.51;66.14;97519.73;591421;240;64060;-68
2023/09/16 07:00:15;;;;;;;;;;;;;;;22.51;66.29;97513.58;591361;240;66647;-68
2023/09/16 07:02:43;;;;;;;;;;;;;;;22.51;66.41;97510.90;591361;240;65138;-68
2023/09/16 07:11:49;;;;;;;;;;;;;;;22.52;66.41;97515.17;591592;240;39952;-69
2023/09/16 07:14:16;;;;;;;;;;;;;;;22.51;67.52;97518.94;591449;240;64645;-69
2023/09/16 07:16:44;;;;;;;;;;;;;;;22.50;66.67;97522.66;591508;240;64792;-67
2023/09/16 07:19:11;;;;;;;;;;;;;;;22.50;66.19;97528.02;591442;240;62969;-67
2023/09/16 07:21:39;;;;;;;;;;;;;;;22.50;66.55;97526.14;591490;240;64828;-67
2023/09/16 07:24:07;;;;;;;;;;;;;;;22.50;66.12;97534.17;591351;240;64754;-69
2023/09/16 07:26:34;;;;;;;;;;;;;;;22.51;67.08;97533.13;590937;240;65089;-67
2023/09/16 07:29:02;;;;;;;;;;;;;;;22.51;67.78;97530.45;590300;240;67969;-67
2023/09/16 07:31:30;;;;;;;;;;;;;;;22.51;68.53;97532.33;588652;239;66706;-67
2023/09/16 07:33:57;;;;;;;;;;;;;;;22.51;67.90;97537.69;586734;242;65121;-67
2023/09/16 07:36:25;;;;;;;;;;;;;;;22.50;68.06;97536.85;586584;242;66700;-67
2023/09/16 07:38:52;;;;;;;;;;;;;;;22.50;68.21;97539.53;586059;242;66658;-67
2023/09/16 07:41:20;;;;;;;;;;;;;;;22.52;68.91;97547.31;586749;242;66335;-68
2023/09/16 07:43:47;;;;;;;;;;;;;;;22.51;67.87;97545.72;586912;242;67280;-68
2023/09/16 07:46:15;;;;;;;;;;;;;;;22.51;67.87;97545.72;586828;242;64440;-68
2023/09/16 07:48:42;;;;;;;;;;;;;;;22.51;68.61;97543.84;586865;242;62794;-67
2023/09/16 07:51:10;;;;;;;;;;;;;;;22.52;67.79;97548.11;586839;242;64646;-68
2023/09/16 07:53:37;;;;;;;;;;;;;;;22.52;67.55;97555.35;586819;242;64603;-67
2023/09/16 07:56:05;;;;;;;;;;;;;;;22.52;67.09;97547.31;586898;242;62671;-68
2023/09/16 07:58:32;;;;;;;;;;;;;;;22.51;66.83;97549.20;586863;242;67001;-67
2023/09/16 08:01:00;;;;;;;;;;;;;;;22.52;66.96;97549.99;586836;242;66710;-67
2023/09/16 08:03:27;;;;;;;;;;;;;;;22.52;66.19;97556.14;586846;242;65002;-67
2023/09/16 08:05:55;;;;;;;;;;;;;;;22.53;68.15;97554.27;586494;242;64384;-68
2023/09/16 08:08:22;;;;;;;;;;;;;;;22.53;66.73;97555.06;586456;242;66891;-68
2023/09/16 08:10:51;;;;;;;;;;;;;;;22.54;66.79;97566.61;579629;241;63541;-67
2023/09/16 08:13:19;;;;;;;;;;;;;;;22.54;66.20;97553.22;586356;242;65361;-67
2023/09/16 08:16:23;;;;;;;;;;;;;;;22.54;65.98;97554.02;586428;242;66677;-67
2023/09/16 08:18:50;;;;;;;;;;;;;;;22.54;65.76;97556.69;586888;242;63653;-68
2023/09/16 08:21:18;;;;;;;;;;;;;;;22.55;66.34;97557.48;586875;242;64481;-68
2023/09/16 08:23:45;;;;;;;;;;;;;;;22.54;65.59;97554.02;586889;242;66484;-68
2023/09/16 08:26:13;;;;;;;;;;;;;;;22.54;65.66;97553.22;586864;242;64915;-65
2023/09/16 08:28:40;;;;;;;;;;;;;;;22.55;65.88;97550.25;586942;242;67036;-64
2023/09/16 08:31:08;;;;;;;;;;;;;;;22.55;65.71;97552.13;588477;239;66907;-65
2023/09/16 08:33:35;;;;;;;;;;;;;;;22.56;65.90;97551.05;594129;239;64874;-65
2023/09/16 08:36:03;;;;;;;;;;;;;;;22.55;65.69;97554.81;594155;239;64538;-64
2023/09/16 08:38:31;;;;;;;;;;;;;;;22.55;65.66;97554.81;594129;239;64649;-65
2023/09/16 08:41:06;;;;;;;;;;;;;;;22.55;65.70;97552.93;594143;239;65021;-64
2023/09/16 08:43:35;;;;;;;;;;;;;;;22.56;65.72;97553.73;594125;239;64499;-65
2023/09/16 08:46:04;;;;;;;;;;;;;;;22.56;65.87;97556.41;594157;239;66757;-64
2023/09/16 08:48:36;;;;;;;;;;;;;;;22.56;65.58;97556.41;594046;239;64932;-64
2023/09/16 08:51:05;;;;;;;;;;;;;;;22.56;65.66;97561.77;594117;239;65065;-66
2023/09/16 08:53:34;;;;;;;;;;;;;;;22.57;65.72;97561.51;594147;239;66968;-65
2023/09/16 08:56:02;;;;;;;;;;;;;;;22.56;65.73;97559.91;594183;239;63005;-65
2023/09/16 08:58:31;;;;;;;;;;;;;;;22.55;65.79;97550.25;594147;239;67039;-66
2023/09/16 09:00:58;;;;;;;;;;;;;;;22.56;65.71;97556.41;594120;239;66674;-65
2023/09/16 09:03:26;;;;;;;;;;;;;;;22.57;65.58;97558.83;594131;239;62653;-65
2023/09/16 09:05:54;;;;;;;;;;;;;;;22.57;65.66;97552.67;594167;239;64713;-65
2023/09/16 09:08:21;;;;;;;;;;;;;;;22.57;65.63;97555.36;594213;239;64373;-65
2023/09/16 09:10:49;;;;;;;;;;;;;;;22.57;65.63;97558.03;594234;239;62724;-66
2023/09/16 09:13:17;;;;;;;;;;;;;;;22.57;65.71;97550.80;594189;239;66553;-65
2023/09/16 09:15:44;;;;;;;;;;;;;;;22.57;65.65;97552.67;594179;239;66536;-65
2023/09/16 09:18:13;;;;;;;;;;;;;;;22.57;65.61;97553.47;594145;239;64958;-65
2023/09/16 09:20:40;;;;;;;;;;;;;;;22.58;65.61;97551.59;594131;239;66710;-69
2023/09/16 09:23:08;;;;;;;;;;;;;;;22.58;65.59;97549.71;594224;239;64525;-69
2023/09/16 09:25:41;;;;;;;;;;;;;;;22.58;65.63;97549.71;594148;239;65210;-69
2023/09/16 09:28:05;;;;;;;;;;;;;;;22.58;65.60;97552.39;593988;239;64221;-69
2023/09/16 09:30:33;;;;;;;;;;;;;;;22.58;65.60;97548.91;594119;239;66648;-69
2023/09/16 09:33:01;;;;;;;;;;;;;;;22.57;65.61;97553.47;593317;239;63289;-69
2023/09/16 09:35:29;;;;;;;;;;;;;;;22.58;65.64;97554.27;593355;239;66583;-69
2023/09/16 09:37:57;;;;;;;;;;;;;;;22.58;65.64;97555.06;593320;239;66555;-69
2023/09/16 09:40:25;;;;;;;;;;;;;;;22.58;65.65;97563.10;593310;239;64905;-69
2023/09/16 09:42:58;;;;;;;;;;;;;;;22.59;65.71;97566.61;593302;239;64553;-69
2023/09/16 09:45:24;;;;;;;;;;;;;;;22.58;65.72;97576.50;593013;239;67114;-69
2023/09/16 09:47:52;;;;;;;;;;;;;;;22.59;65.70;97582.69;593359;239;63821;-69
2023/09/16 09:50:21;;;;;;;;;;;;;;;22.59;65.70;97588.84;593285;239;66734;-69
2023/09/16 09:52:53;;;;;;;;;;;;;;;22.57;65.65;97588.30;593301;239;66774;-69
2023/09/16 09:55:21;;;;;;;;;;;;;;;22.59;65.64;97583.48;593296;239;63202;-69
2023/09/16 09:57:50;;;;;;;;;;;;;;;22.59;65.68;97586.16;593265;239;66782;-69
2023/09/16 10:00:19;;;;;;;;;;;;;;;22.60;65.69;97586.95;593321;239;66826;-69
2023/09/16 10:02:52;;;;;;;;;;;;;;;22.59;65.68;97588.05;593369;239;66215;-69
2023/09/16 10:05:17;;;;;;;;;;;;;;;22.60;65.70;97586.95;592995;239;66775;-66
2023/09/16 10:07:45;;;;;;;;;;;;;;;22.59;65.69;97588.05;593336;239;66675;-69
2023/09/16 10:10:16;;;;;;;;;;;;;;;22.59;65.74;97583.48;593259;239;63042;-69
2023/09/16 10:12:46;;;;;;;;;;;;;;;22.60;65.69;97581.60;593316;239;64946;-69
2023/09/16 10:15:14;;;;;;;;;;;;;;;22.59;65.71;97588.84;593362;239;66689;-68
2023/09/16 10:17:42;;;;;;;;;;;;;;;22.59;65.71;97591.52;593297;239;63896;-67
2023/09/16 10:20:11;;;;;;;;;;;;;;;22.59;65.70;97583.48;593299;239;65523;-67
2023/09/16 10:22:42;;;;;;;;;;;;;;;22.59;65.70;97580.00;593272;239;66802;-68
2023/09/16 10:25:11;;;;;;;;;;;;;;;22.59;65.74;97583.48;593274;239;65381;-67
2023/09/16 10:27:56;;;;;;;;;;;;;;;22.60;65.72;97587.76;593305;239;67122;-67
2023/09/16 10:30:24;;;;;;;;;;;;;;;22.59;65.70;97580.80;593322;239;64499;-68
2023/09/16 10:32:53;;;;;;;;;;;;;;;22.60;65.71;97581.60;594045;239;65498;-68
2023/09/16 10:35:21;;;;;;;;;;;;;;;22.60;65.72;97578.92;594074;239;65046;-67
2023/09/16 10:37:49;;;;;;;;;;;;;;;22.59;65.75;97577.33;594121;239;67010;-67
2023/09/16 10:40:17;;;;;;;;;;;;;;;22.61;65.71;97572.48;594114;239;64901;-68
2023/09/16 10:42:46;;;;;;;;;;;;;;;22.60;65.74;97570.89;594176;239;67301;-67
2023/09/16 10:45:15;;;;;;;;;;;;;;;22.60;65.75;97565.53;594151;239;66960;-68
2023/09/16 10:47:43;;;;;;;;;;;;;;;22.61;65.74;97567.13;594088;239;64886;-68
2023/09/16 10:50:11;;;;;;;;;;;;;;;22.60;65.70;97562.84;594112;239;65086;-68
2023/09/16 10:52:42;;;;;;;;;;;;;;;22.59;65.75;97556.70;594132;239;64724;-68
2023/09/16 10:55:14;;;;;;;;;;;;;;;22.60;65.79;97563.65;594100;239;64927;-69
2023/09/16 10:57:43;;;;;;;;;;;;;;;22.60;65.81;97570.89;594154;239;67298;-67
2023/09/16 11:00:11;;;;;;;;;;;;;;;22.60;65.80;97566.33;594042;239;64991;-68
2023/09/16 11:02:41;;;;;;;;;;;;;;;22.60;65.80;97554.81;594146;239;65087;-68
2023/09/16 11:05:09;;;;;;;;;;;;;;;22.60;65.78;97544.09;594120;239;64858;-67
2023/09/16 11:07:37;;;;;;;;;;;;;;;22.61;65.77;97545.70;594156;239;67032;-68
2023/09/16 11:10:05;;;;;;;;;;;;;;;22.60;65.74;97538.74;594197;239;64702;-67
2023/09/16 11:12:33;;;;;;;;;;;;;;;22.61;65.69;97540.34;594088;239;67408;-67
2023/09/16 11:15:02;;;;;;;;;;;;;;;22.60;65.67;97533.38;594144;239;66895;-67
2023/09/16 11:17:30;;;;;;;;;;;;;;;22.61;65.65;97524.27;594131;239;65234;-68
2023/09/16 11:19:59;;;;;;;;;;;;;;;22.61;65.67;97518.91;594133;239;66879;-68
2023/09/16 11:22:27;;;;;;;;;;;;;;;22.62;65.65;97515.17;594006;239;67063;-68
2023/09/16 11:24:54;;;;;;;;;;;;;;;22.60;65.63;97504.72;594188;239;65059;-68
2023/09/16 11:27:22;;;;;;;;;;;;;;;22.61;65.67;97500.16;594115;239;67445;-68
2023/09/16 11:29:52;;;;;;;;;;;;;;;22.61;65.65;97497.48;594142;239;64830;-68
2023/09/16 11:32:21;;;;;;;;;;;;;;;22.62;65.64;97493.74;594126;239;64887;-67
2023/09/16 11:34:49;;;;;;;;;;;;;;;22.62;65.66;97493.74;594139;239;68082;-68
2023/09/16 11:37:16;;;;;;;;;;;;;;;22.61;65.68;97490.23;594174;239;65640;-67
2023/09/16 11:39:46;;;;;;;;;;;;;;;22.61;65.68;97481.41;594102;239;65062;-68
2023/09/16 11:42:13;;;;;;;;;;;;;;;22.62;65.65;97477.67;594177;239;65143;-67
2023/09/16 11:44:41;;;;;;;;;;;;;;;22.63;65.63;97479.27;594143;239;64584;-68
2023/09/16 11:47:10;;;;;;;;;;;;;;;22.62;65.64;97474.99;594142;239;63046;-67
2023/09/16 11:49:38;;;;;;;;;;;;;;;22.62;65.64;97477.67;594166;239;64685;-68
2023/09/16 11:52:05;;;;;;;;;;;;;;;22.62;65.65;97466.95;594112;239;67230;-68
2023/09/16 11:54:33;;;;;;;;;;;;;;;22.61;65.61;97465.33;594108;239;65035;-68
2023/09/16 11:57:00;;;;;;;;;;;;;;;22.61;65.62;97466.12;594112;239;67368;-68
2023/09/16 11:59:28;;;;;;;;;;;;;;;22.61;65.60;97459.97;594139;239;65060;-68
2023/09/16 12:01:56;;;;;;;;;;;;;;;22.62;65.59;97461.59;594187;239;63938;-68
2023/09/16 12:04:24;;;;;;;;;;;;;;;22.61;65.58;97454.62;594125;239;65148;-68
2023/09/16 12:06:54;;;;;;;;;;;;;;;22.62;65.60;97448.20;594133;239;66803;-67
2023/09/16 12:09:23;;;;;;;;;;;;;;;22.61;65.62;97452.73;594128;239;63048;-68
2023/09/16 12:11:51;;;;;;;;;;;;;;;22.61;65.62;97435.86;594132;239;64804;-68
2023/09/16 12:14:19;;;;;;;;;;;;;;;22.62;65.65;97442.84;594118;239;65370;-68
2023/09/16 12:16:47;;;;;;;;;;;;;;;22.62;65.64;97434.81;594159;239;62926;-67
2023/09/16 12:19:14;;;;;;;;;;;;;;;22.63;65.63;97436.41;594142;239;67155;-68
2023/09/16 12:21:46;;;;;;;;;;;;;;;22.62;65.64;97432.13;594137;239;67839;-67
2023/09/16 12:24:18;;;;;;;;;;;;;;;22.63;65.63;97431.05;594129;239;65102;-67
2023/09/16 12:26:46;;;;;;;;;;;;;;;22.63;65.66;97428.37;594132;239;67119;-67
2023/09/16 12:29:14;;;;;;;;;;;;;;;22.62;65.47;97429.45;594163;239;67068;-68
2023/09/16 12:31:42;;;;;;;;;;;;;;;22.63;65.65;97430.25;594123;239;65058;-68
2023/09/16 12:34:16;;;;;;;;;;;;;;;22.64;65.73;97434.52;594121;239;64632;-68
2023/09/16 12:36:45;;;;;;;;;;;;;;;22.63;65.73;97427.57;594137;239;67061;-68
2023/09/16 12:39:13;;;;;;;;;;;;;;;22.63;65.74;97423.01;594131;239;62816;-68
2023/09/16 12:41:43;;;;;;;;;;;;;;;22.63;65.78;97416.86;594122;239;67505;-68
2023/09/16 12:44:10;;;;;;;;;;;;;;;22.63;65.83;97414.97;594176;239;66892;-68
2023/09/16 12:46:38;;;;;;;;;;;;;;;22.63;65.81;97406.94;594118;239;66083;-68
2023/09/16 12:49:06;;;;;;;;;;;;;;;22.64;65.82;97402.37;594133;239;67092;-68
2023/09/16 12:51:33;;;;;;;;;;;;;;;22.64;65.87;97399.70;594137;239;66879;-68
2023/09/16 12:54:01;;;;;;;;;;;;;;;22.65;65.81;97395.96;594108;239;64950;-68
2023/09/16 12:56:30;;;;;;;;;;;;;;;22.64;65.78;97403.17;594192;239;67199;-68
2023/09/16 12:59:00;;;;;;;;;;;;;;;22.64;65.69;97403.17;594091;239;65044;-68